createdAt,value
2018-12-05T00:00:39.115Z,1020.03
2018-12-05T00:01:39.120Z,1020.01
2018-12-05T00:02:39.119Z,1020.03
2018-12-05T00:04:39.140Z,1020.05
2018-12-05T00:05:39.148Z,1020.03
2018-12-05T00:06:39.915Z,1020.05
2018-12-05T00:07:39.127Z,1020.02
2018-12-05T00:08:39.138Z,1019.96
2018-12-05T00:09:39.130Z,1019.99
2018-12-05T00:10:39.143Z,1019.93
2018-12-05T00:11:39.141Z,1019.98
2018-12-05T00:12:39.141Z,1019.98
2018-12-05T00:13:39.144Z,1020.03
2018-12-05T00:14:39.139Z,1020.00
2018-12-05T00:15:39.146Z,1019.97
2018-12-05T00:16:39.142Z,1020.09
2018-12-05T00:17:39.156Z,1020.15
2018-12-05T00:18:39.153Z,1020.12
2018-12-05T00:19:39.151Z,1020.10
2018-12-05T00:20:39.141Z,1020.09
2018-12-05T00:21:39.156Z,1020.07
2018-12-05T00:22:39.157Z,1020.05
2018-12-05T00:23:39.165Z,1020.00
2018-12-05T00:24:39.165Z,1019.94
2018-12-05T00:25:39.164Z,1019.94
2018-12-05T00:26:39.157Z,1019.93
2018-12-05T00:27:39.164Z,1019.94
2018-12-05T00:28:39.166Z,1019.94
2018-12-05T00:29:39.162Z,1019.91
2018-12-05T00:30:39.172Z,1019.92
2018-12-05T00:31:39.174Z,1019.84
2018-12-05T00:32:39.171Z,1019.87
2018-12-05T00:33:39.178Z,1019.86
2018-12-05T00:34:39.179Z,1019.89
2018-12-05T00:35:39.178Z,1019.86
2018-12-05T00:36:39.182Z,1019.92
2018-12-05T00:37:39.178Z,1019.87
2018-12-05T00:38:39.200Z,1019.88
2018-12-05T00:39:39.187Z,1019.88
2018-12-05T00:40:39.189Z,1019.90
2018-12-05T00:41:39.186Z,1019.86
2018-12-05T00:42:39.194Z,1019.85
2018-12-05T00:43:39.194Z,1019.85
2018-12-05T00:44:39.187Z,1019.82
2018-12-05T00:45:39.197Z,1019.80
2018-12-05T00:46:39.199Z,1019.79
2018-12-05T00:47:39.194Z,1019.86
2018-12-05T00:48:39.200Z,1019.85
2018-12-05T00:49:39.199Z,1019.86
2018-12-05T00:51:39.209Z,1019.91
2018-12-05T00:52:39.202Z,1019.90
2018-12-05T00:53:39.209Z,1019.86
2018-12-05T00:54:39.210Z,1019.84
2018-12-05T00:55:39.211Z,1019.85
2018-12-05T00:56:39.211Z,1019.85
2018-12-05T00:57:39.209Z,1019.82
2018-12-05T00:59:39.213Z,1019.86
2018-12-05T01:00:39.213Z,1019.88
2018-12-05T01:01:39.219Z,1019.89
2018-12-05T01:02:39.220Z,1019.90
2018-12-05T01:03:39.225Z,1019.90
2018-12-05T01:04:39.222Z,1019.94
2018-12-05T01:05:39.232Z,1019.96
2018-12-05T01:06:39.236Z,1019.99
2018-12-05T01:07:39.224Z,1020.03
2018-12-05T01:08:39.233Z,1020.03
2018-12-05T01:09:39.247Z,1020.02
2018-12-05T01:10:39.247Z,1020.09
2018-12-05T01:11:39.237Z,1020.10
2018-12-05T01:12:39.241Z,1020.04
2018-12-05T01:13:39.255Z,1020.03
2018-12-05T01:14:39.249Z,1020.04
2018-12-05T01:15:39.246Z,1020.04
2018-12-05T01:16:39.309Z,1019.96
2018-12-05T01:17:39.254Z,1019.97
2018-12-05T01:18:39.259Z,1019.92
2018-12-05T01:19:39.256Z,1019.91
2018-12-05T01:20:39.253Z,1019.92
2018-12-05T01:21:39.256Z,1019.93
2018-12-05T01:22:39.265Z,1019.88
2018-12-05T01:23:39.260Z,1019.84
2018-12-05T01:24:39.264Z,1019.85
2018-12-05T01:25:39.267Z,1019.81
2018-12-05T01:26:39.269Z,1019.84
2018-12-05T01:27:39.273Z,1019.91
2018-12-05T01:28:39.278Z,1019.91
2018-12-05T01:29:39.270Z,1019.93
2018-12-05T01:30:39.273Z,1019.92
2018-12-05T01:31:39.283Z,1019.88
2018-12-05T01:32:39.340Z,1019.92
2018-12-05T01:33:39.291Z,1019.98
2018-12-05T01:34:39.283Z,1019.97
2018-12-05T01:35:39.288Z,1019.96
2018-12-05T01:36:39.288Z,1020.02
2018-12-05T01:37:39.291Z,1019.96
2018-12-05T01:38:39.292Z,1019.93
2018-12-05T01:39:39.294Z,1019.90
2018-12-05T01:40:39.301Z,1019.86
2018-12-05T01:41:39.299Z,1019.85
2018-12-05T01:42:39.296Z,1019.80
2018-12-05T01:43:39.306Z,1019.84
2018-12-05T01:44:39.301Z,1019.84
2018-12-05T01:45:39.306Z,1019.81
2018-12-05T01:46:39.306Z,1019.84
2018-12-05T01:47:39.307Z,1019.80
2018-12-05T01:48:39.311Z,1019.85
2018-12-05T01:49:39.312Z,1019.86
2018-12-05T01:50:39.323Z,1019.88
2018-12-05T01:51:39.314Z,1019.90
2018-12-05T01:52:39.319Z,1019.93
2018-12-05T01:53:39.322Z,1019.91
2018-12-05T01:54:39.315Z,1019.89
2018-12-05T01:55:39.318Z,1019.89
2018-12-05T01:56:39.325Z,1019.87
2018-12-05T01:57:39.325Z,1019.89
2018-12-05T01:58:39.330Z,1019.91
2018-12-05T01:59:39.332Z,1019.87
2018-12-05T02:00:39.343Z,1019.89
2018-12-05T02:01:39.336Z,1019.88
2018-12-05T02:02:39.326Z,1019.89
2018-12-05T02:03:39.339Z,1019.88
2018-12-05T02:04:39.339Z,1019.90
2018-12-05T02:05:39.336Z,1019.89
2018-12-05T02:06:39.353Z,1019.88
2018-12-05T02:07:39.348Z,1019.86
2018-12-05T02:08:39.341Z,1019.87
2018-12-05T02:09:39.354Z,1019.86
2018-12-05T02:10:39.360Z,1019.86
2018-12-05T02:11:39.349Z,1019.85
2018-12-05T02:12:39.351Z,1019.82
2018-12-05T02:13:39.359Z,1019.84
2018-12-05T02:14:39.352Z,1019.84
2018-12-05T02:15:39.361Z,1019.87
2018-12-05T02:16:39.359Z,1019.89
2018-12-05T02:17:39.371Z,1019.87
2018-12-05T02:18:39.365Z,1019.89
2018-12-05T02:19:39.369Z,1019.88
2018-12-05T02:20:39.369Z,1019.87
2018-12-05T02:21:39.374Z,1019.95
2018-12-05T02:22:39.377Z,1019.93
2018-12-05T02:23:39.375Z,1019.91
2018-12-05T02:24:39.380Z,1019.89
2018-12-05T02:25:39.380Z,1019.85
2018-12-05T02:26:39.385Z,1019.89
2018-12-05T02:27:39.387Z,1019.90
2018-12-05T02:30:39.405Z,1019.94
2018-12-05T02:31:39.391Z,1020.00
2018-12-05T02:32:39.394Z,1019.94
2018-12-05T02:33:39.396Z,1019.98
2018-12-05T02:34:39.391Z,1019.98
2018-12-05T02:35:39.391Z,1020.01
2018-12-05T02:36:39.397Z,1020.02
2018-12-05T02:37:39.401Z,1020.05
2018-12-05T02:38:39.414Z,1020.01
2018-12-05T02:39:39.414Z,1019.96
2018-12-05T02:41:39.439Z,1019.93
2018-12-05T02:42:39.409Z,1019.93
2018-12-05T02:43:39.411Z,1019.94
2018-12-05T02:44:39.410Z,1019.87
2018-12-05T02:45:39.419Z,1019.85
2018-12-05T02:46:39.416Z,1019.89
2018-12-05T02:47:39.420Z,1019.89
2018-12-05T02:48:39.426Z,1019.88
2018-12-05T02:49:39.425Z,1019.86
2018-12-05T02:50:39.444Z,1019.83
2018-12-05T02:51:39.415Z,1019.89
2018-12-05T02:52:39.414Z,1019.88
2018-12-05T02:53:39.416Z,1019.83
2018-12-05T02:54:39.423Z,1019.81
2018-12-05T02:55:39.427Z,1019.81
2018-12-05T02:56:39.435Z,1019.86
2018-12-05T02:57:39.441Z,1019.87
2018-12-05T02:58:39.441Z,1019.82
2018-12-05T02:59:39.454Z,1019.86
2018-12-05T03:00:39.430Z,1019.86
2018-12-05T03:01:39.440Z,1019.86
2018-12-05T03:02:39.442Z,1019.88
2018-12-05T03:03:39.448Z,1019.89
2018-12-05T03:04:39.449Z,1019.83
2018-12-05T03:05:39.461Z,1019.84
2018-12-05T03:06:39.469Z,1019.85
2018-12-05T03:07:39.456Z,1019.87
2018-12-05T03:08:39.461Z,1019.80
2018-12-05T03:09:39.473Z,1019.80
2018-12-05T03:10:39.444Z,1019.81
2018-12-05T03:11:39.445Z,1019.78
2018-12-05T03:12:39.447Z,1019.80
2018-12-05T03:13:39.450Z,1019.80
2018-12-05T03:14:39.463Z,1019.74
2018-12-05T03:15:39.470Z,1019.72
2018-12-05T03:16:39.475Z,1019.71
2018-12-05T03:17:39.481Z,1019.76
2018-12-05T03:18:39.490Z,1019.75
2018-12-05T03:19:39.469Z,1019.72
2018-12-05T03:20:39.499Z,1019.72
2018-12-05T03:21:39.471Z,1019.69
2018-12-05T03:22:39.476Z,1019.68
2018-12-05T03:23:39.494Z,1019.67
2018-12-05T03:24:39.469Z,1019.71
2018-12-05T03:25:39.536Z,1019.71
2018-12-05T03:27:39.476Z,1019.76
2018-12-05T03:28:39.479Z,1019.77
2018-12-05T03:29:39.481Z,1019.78
2018-12-05T03:30:39.483Z,1019.77
2018-12-05T03:31:39.488Z,1019.80
2018-12-05T03:32:39.490Z,1019.80
2018-12-05T03:33:39.490Z,1019.78
2018-12-05T03:34:39.496Z,1019.76
2018-12-05T03:35:39.497Z,1019.78
2018-12-05T03:36:39.498Z,1019.76
2018-12-05T03:37:39.502Z,1019.81
2018-12-05T03:38:39.489Z,1019.78
2018-12-05T03:39:39.497Z,1019.74
2018-12-05T03:40:39.505Z,1019.80
2018-12-05T03:41:39.489Z,1019.81
2018-12-05T03:42:39.591Z,1019.83
2018-12-05T03:43:39.512Z,1019.80
2018-12-05T03:44:39.602Z,1019.77
2018-12-05T03:45:39.506Z,1019.75
2018-12-05T03:46:39.508Z,1019.73
2018-12-05T03:47:39.510Z,1019.76
2018-12-05T03:48:39.513Z,1019.72
2018-12-05T03:49:39.511Z,1019.73
2018-12-05T03:50:39.564Z,1019.68
2018-12-05T03:51:39.509Z,1019.71
2018-12-05T03:52:39.515Z,1019.66
2018-12-05T03:53:39.514Z,1019.65
2018-12-05T03:54:39.515Z,1019.66
2018-12-05T03:55:39.545Z,1019.63
2018-12-05T03:56:39.527Z,1019.60
2018-12-05T03:57:39.521Z,1019.63
2018-12-05T03:58:39.525Z,1019.64
2018-12-05T03:59:39.524Z,1019.66
2018-12-05T04:00:39.522Z,1019.63
2018-12-05T04:01:39.534Z,1019.64
2018-12-05T04:03:39.550Z,1019.55
2018-12-05T04:04:39.529Z,1019.56
2018-12-05T04:05:39.521Z,1019.55
2018-12-05T04:06:39.532Z,1019.55
2018-12-05T04:07:39.532Z,1019.52
2018-12-05T04:08:39.565Z,1019.53
2018-12-05T04:09:39.528Z,1019.52
2018-12-05T04:10:39.539Z,1019.58
2018-12-05T04:11:39.541Z,1019.55
2018-12-05T04:12:40.835Z,1019.52
2018-12-05T04:13:39.548Z,1019.50
2018-12-05T04:14:39.540Z,1019.53
2018-12-05T04:16:39.542Z,1019.54
2018-12-05T04:17:39.547Z,1019.57
2018-12-05T04:18:39.551Z,1019.58
2018-12-05T04:19:39.561Z,1019.59
2018-12-05T04:20:39.550Z,1019.58
2018-12-05T04:21:39.557Z,1019.63
2018-12-05T04:23:39.556Z,1019.66
2018-12-05T04:24:39.557Z,1019.69
2018-12-05T04:25:39.557Z,1019.70
2018-12-05T04:26:39.554Z,1019.68
2018-12-05T04:27:39.554Z,1019.66
2018-12-05T04:28:39.559Z,1019.66
2018-12-05T04:30:39.566Z,1019.63
2018-12-05T04:31:39.569Z,1019.62
2018-12-05T04:32:39.570Z,1019.64
2018-12-05T04:33:39.565Z,1019.66
2018-12-05T04:34:39.571Z,1019.67
2018-12-05T04:35:39.574Z,1019.62
2018-12-05T04:36:39.574Z,1019.63
2018-12-05T04:37:39.570Z,1019.65
2018-12-05T04:38:39.567Z,1019.66
2018-12-05T04:39:39.580Z,1019.63
2018-12-05T04:40:39.579Z,1019.65
2018-12-05T04:41:39.580Z,1019.66
2018-12-05T04:42:39.589Z,1019.67
2018-12-05T04:43:39.582Z,1019.72
2018-12-05T04:44:39.579Z,1019.73
2018-12-05T04:45:39.583Z,1019.73
2018-12-05T04:46:39.597Z,1019.78
2018-12-05T04:47:39.588Z,1019.76
2018-12-05T04:48:39.597Z,1019.76
2018-12-05T04:49:39.592Z,1019.76
2018-12-05T04:50:39.591Z,1019.75
2018-12-05T04:51:39.591Z,1019.73
2018-12-05T04:52:39.615Z,1019.60
2018-12-05T04:53:39.589Z,1019.64
2018-12-05T04:54:39.594Z,1019.59
2018-12-05T04:55:39.593Z,1019.58
2018-12-05T04:56:39.601Z,1019.63
2018-12-05T04:57:39.600Z,1019.62
2018-12-05T04:58:39.595Z,1019.67
2018-12-05T04:59:39.602Z,1019.63
2018-12-05T05:00:39.599Z,1019.65
2018-12-05T05:01:39.601Z,1019.63
2018-12-05T05:02:39.605Z,1019.61
2018-12-05T05:03:39.599Z,1019.57
2018-12-05T05:04:39.605Z,1019.58
2018-12-05T05:05:39.619Z,1019.58
2018-12-05T05:06:41.802Z,1019.61
2018-12-05T05:07:39.611Z,1019.58
2018-12-05T05:08:39.609Z,1019.57
2018-12-05T05:09:39.609Z,1019.59
2018-12-05T05:10:39.607Z,1019.54
2018-12-05T05:11:39.625Z,1019.53
2018-12-05T05:12:39.622Z,1019.51
2018-12-05T05:13:39.618Z,1019.50
2018-12-05T05:14:39.638Z,1019.50
2018-12-05T05:15:39.615Z,1019.50
2018-12-05T05:16:39.618Z,1019.49
2018-12-05T05:17:39.620Z,1019.49
2018-12-05T05:18:39.611Z,1019.48
2018-12-05T05:19:39.623Z,1019.47
2018-12-05T05:21:39.625Z,1019.48
2018-12-05T05:22:39.625Z,1019.48
2018-12-05T05:23:39.630Z,1019.51
2018-12-05T05:24:39.623Z,1019.46
2018-12-05T05:25:39.623Z,1019.44
2018-12-05T05:26:39.625Z,1019.47
2018-12-05T05:27:45.689Z,1019.41
2018-12-05T05:28:39.630Z,1019.44
2018-12-05T05:29:39.629Z,1019.39
2018-12-05T05:30:39.635Z,1019.41
2018-12-05T05:31:39.639Z,1019.41
2018-12-05T05:32:39.635Z,1019.40
2018-12-05T05:33:39.643Z,1019.40
2018-12-05T05:34:39.632Z,1019.40
2018-12-05T05:36:39.633Z,1019.42
2018-12-05T05:37:39.656Z,1019.39
2018-12-05T05:38:39.645Z,1019.40
2018-12-05T05:39:39.667Z,1019.39
2018-12-05T05:40:39.640Z,1019.42
2018-12-05T05:41:39.634Z,1019.42
2018-12-05T05:42:39.642Z,1019.40
2018-12-05T05:43:39.647Z,1019.40
2018-12-05T05:44:39.639Z,1019.39
2018-12-05T05:45:39.643Z,1019.37
2018-12-05T05:46:39.645Z,1019.38
2018-12-05T05:47:39.650Z,1019.39
2018-12-05T05:48:39.652Z,1019.40
2018-12-05T05:49:39.641Z,1019.40
2018-12-05T05:50:39.648Z,1019.41
2018-12-05T05:51:39.651Z,1019.40
2018-12-05T05:52:39.659Z,1019.37
2018-12-05T05:53:39.653Z,1019.44
2018-12-05T05:55:39.650Z,1019.48
2018-12-05T05:56:39.650Z,1019.50
2018-12-05T05:57:39.660Z,1019.46
2018-12-05T05:58:39.645Z,1019.47
2018-12-05T05:59:39.679Z,1019.46
2018-12-05T06:00:39.652Z,1019.51
2018-12-05T06:01:39.668Z,1019.55
2018-12-05T06:02:39.664Z,1019.55
2018-12-05T06:03:39.659Z,1019.61
2018-12-05T06:04:39.661Z,1019.62
2018-12-05T06:05:39.671Z,1019.60
2018-12-05T06:06:39.663Z,1019.60
2018-12-05T06:07:39.660Z,1019.63
2018-12-05T06:08:39.667Z,1019.63
2018-12-05T06:09:39.664Z,1019.62
2018-12-05T06:10:39.670Z,1019.62
2018-12-05T06:11:39.670Z,1019.63
2018-12-05T06:12:39.670Z,1019.53
2018-12-05T06:13:39.684Z,1019.57
2018-12-05T06:14:39.673Z,1019.56
2018-12-05T06:15:39.671Z,1019.50
2018-12-05T06:17:39.673Z,1019.48
2018-12-05T06:18:39.670Z,1019.47
2018-12-05T06:19:39.675Z,1019.51
2018-12-05T06:20:39.675Z,1019.49
2018-12-05T06:21:39.672Z,1019.55
2018-12-05T06:22:39.679Z,1019.52
2018-12-05T06:23:39.690Z,1019.55
2018-12-05T06:24:39.680Z,1019.52
2018-12-05T06:25:39.683Z,1019.53
2018-12-05T06:26:39.691Z,1019.54
2018-12-05T06:27:39.675Z,1019.56
2018-12-05T06:28:39.680Z,1019.52
2018-12-05T06:29:39.686Z,1019.57
2018-12-05T06:30:39.692Z,1019.52
2018-12-05T06:31:39.697Z,1019.51
2018-12-05T06:32:39.687Z,1019.55
2018-12-05T06:33:39.692Z,1019.60
2018-12-05T06:34:39.732Z,1019.58
2018-12-05T06:35:39.704Z,1019.60
2018-12-05T06:36:39.688Z,1019.56
2018-12-05T06:37:39.690Z,1019.57
2018-12-05T06:38:39.684Z,1019.60
2018-12-05T06:39:39.695Z,1019.58
2018-12-05T06:40:39.710Z,1019.60
2018-12-05T06:41:39.709Z,1019.60
2018-12-05T06:42:39.706Z,1019.57
2018-12-05T06:43:39.701Z,1019.59
2018-12-05T06:44:39.702Z,1019.62
2018-12-05T06:45:39.718Z,1019.59
2018-12-05T06:46:39.702Z,1019.55
2018-12-05T06:47:39.713Z,1019.62
2018-12-05T06:48:39.727Z,1019.61
2018-12-05T06:49:39.705Z,1019.61
2018-12-05T06:50:39.706Z,1019.62
2018-12-05T06:51:39.707Z,1019.69
2018-12-05T06:52:39.726Z,1019.68
2018-12-05T06:53:39.715Z,1019.67
2018-12-05T06:54:39.716Z,1019.67
2018-12-05T06:55:39.710Z,1019.66
2018-12-05T06:56:39.712Z,1019.63
2018-12-05T06:57:39.725Z,1019.60
2018-12-05T06:58:39.726Z,1019.60
2018-12-05T06:59:39.717Z,1019.61
2018-12-05T07:00:39.716Z,1019.63
2018-12-05T07:01:39.723Z,1019.69
2018-12-05T07:02:39.714Z,1019.67
2018-12-05T07:03:39.720Z,1019.66
2018-12-05T07:04:39.720Z,1019.65
2018-12-05T07:05:39.717Z,1019.66
2018-12-05T07:06:39.719Z,1019.67
2018-12-05T07:07:39.721Z,1019.63
2018-12-05T07:09:39.767Z,1019.64
2018-12-05T07:10:39.728Z,1019.65
2018-12-05T07:11:39.725Z,1019.58
2018-12-05T07:12:39.725Z,1019.60
2018-12-05T07:13:39.729Z,1019.66
2018-12-05T07:14:39.720Z,1019.70
2018-12-05T07:15:39.726Z,1019.68
2018-12-05T07:17:39.729Z,1019.60
2018-12-05T07:18:39.734Z,1019.58
2018-12-05T07:20:39.736Z,1019.58
2018-12-05T07:21:39.740Z,1019.57
2018-12-05T07:22:39.742Z,1019.58
2018-12-05T07:23:39.740Z,1019.51
2018-12-05T07:24:39.741Z,1019.57
2018-12-05T07:25:39.773Z,1019.59
2018-12-05T07:27:39.757Z,1019.57
2018-12-05T07:28:39.742Z,1019.55
2018-12-05T07:29:39.751Z,1019.53
2018-12-05T07:30:39.753Z,1019.49
2018-12-05T07:31:39.752Z,1019.50
2018-12-05T07:32:39.750Z,1019.51
2018-12-05T07:33:39.752Z,1019.53
2018-12-05T07:34:39.761Z,1019.49
2018-12-05T07:35:39.750Z,1019.50
2018-12-05T07:36:39.844Z,1019.57
2018-12-05T07:37:39.761Z,1019.54
2018-12-05T07:38:39.773Z,1019.54
2018-12-05T07:39:39.764Z,1019.56
2018-12-05T07:40:39.755Z,1019.56
2018-12-05T07:41:39.761Z,1019.54
2018-12-05T07:42:39.767Z,1019.60
2018-12-05T07:43:39.778Z,1019.59
2018-12-05T07:44:39.784Z,1019.57
2018-12-05T07:45:39.766Z,1019.59
2018-12-05T07:46:39.766Z,1019.57
2018-12-05T07:47:39.766Z,1019.57
2018-12-05T07:48:39.774Z,1019.52
2018-12-05T07:49:39.761Z,1019.53
2018-12-05T07:50:39.774Z,1019.52
2018-12-05T07:51:39.777Z,1019.50
2018-12-05T07:52:39.779Z,1019.57
2018-12-05T07:53:39.842Z,1019.51
2018-12-05T07:54:39.784Z,1019.50
2018-12-05T07:55:39.780Z,1019.52
2018-12-05T07:56:39.790Z,1019.53
2018-12-05T07:57:39.839Z,1019.58
2018-12-05T07:58:39.780Z,1019.57
2018-12-05T07:59:39.789Z,1019.55
2018-12-05T08:00:39.780Z,1019.54
2018-12-05T08:01:39.795Z,1019.53
2018-12-05T08:02:39.792Z,1019.55
2018-12-05T08:03:39.794Z,1019.57
2018-12-05T08:04:39.796Z,1019.53
2018-12-05T08:05:39.794Z,1019.56
2018-12-05T08:06:39.792Z,1019.58
2018-12-05T08:07:39.794Z,1019.61
2018-12-05T08:09:39.798Z,1019.58
2018-12-05T08:10:39.798Z,1019.59
2018-12-05T08:11:39.797Z,1019.59
2018-12-05T08:12:39.800Z,1019.62
2018-12-05T08:13:39.799Z,1019.60
2018-12-05T08:14:39.809Z,1019.59
2018-12-05T08:15:39.817Z,1019.66
2018-12-05T08:16:39.835Z,1019.62
2018-12-05T08:17:39.811Z,1019.56
2018-12-05T08:18:39.822Z,1019.58
2018-12-05T08:19:39.821Z,1019.58
2018-12-05T08:20:39.816Z,1019.56
2018-12-05T08:21:39.819Z,1019.58
2018-12-05T08:22:39.821Z,1019.58
2018-12-05T08:23:39.837Z,1019.58
2018-12-05T08:24:39.831Z,1019.54
2018-12-05T08:25:40.847Z,1019.49
2018-12-05T08:26:39.825Z,1019.46
2018-12-05T08:27:39.825Z,1019.46
2018-12-05T08:28:39.823Z,1019.46
2018-12-05T08:29:39.828Z,1019.39
2018-12-05T08:30:39.826Z,1019.44
2018-12-05T08:31:39.835Z,1019.40
2018-12-05T08:32:39.861Z,1019.44
2018-12-05T08:33:39.844Z,1019.48
2018-12-05T08:34:39.845Z,1019.44
2018-12-05T08:35:39.847Z,1019.37
2018-12-05T08:36:39.854Z,1019.36
2018-12-05T08:37:39.843Z,1019.33
2018-12-05T08:38:39.849Z,1019.33
2018-12-05T08:39:39.855Z,1019.35
2018-12-05T08:40:39.852Z,1019.37
2018-12-05T08:41:39.862Z,1019.34
2018-12-05T08:42:39.860Z,1019.37
2018-12-05T08:43:39.866Z,1019.34
2018-12-05T08:44:39.861Z,1019.38
2018-12-05T08:45:39.868Z,1019.32
2018-12-05T08:46:39.884Z,1019.43
2018-12-05T08:47:39.902Z,1019.44
2018-12-05T08:48:39.873Z,1019.41
2018-12-05T08:49:39.869Z,1019.43
2018-12-05T08:50:39.874Z,1019.36
2018-12-05T08:51:39.882Z,1019.35
2018-12-05T08:52:39.883Z,1019.34
2018-12-05T08:53:39.884Z,1019.36
2018-12-05T08:54:39.888Z,1019.37
2018-12-05T08:55:39.897Z,1019.34
2018-12-05T08:56:39.898Z,1019.34
2018-12-05T08:57:39.912Z,1019.37
2018-12-05T08:58:39.906Z,1019.35
2018-12-05T09:00:39.929Z,1019.31
2018-12-05T09:01:39.916Z,1019.27
2018-12-05T09:03:39.919Z,1019.27
2018-12-05T09:04:39.921Z,1019.28
2018-12-05T09:05:39.924Z,1019.29
2018-12-05T09:06:39.920Z,1019.21
2018-12-05T09:07:39.927Z,1019.25
2018-12-05T09:08:39.935Z,1019.22
2018-12-05T09:09:39.943Z,1019.20
2018-12-05T09:10:39.924Z,1019.21
2018-12-05T09:11:39.934Z,1019.18
2018-12-05T09:12:39.934Z,1019.17
2018-12-05T09:13:39.939Z,1019.21
2018-12-05T09:14:39.945Z,1019.18
2018-12-05T09:15:39.949Z,1019.14
2018-12-05T09:16:39.945Z,1019.14
2018-12-05T09:17:39.948Z,1019.12
2018-12-05T09:19:39.962Z,1019.12
2018-12-05T09:20:39.973Z,1019.17
2018-12-05T09:21:39.978Z,1019.18
2018-12-05T09:22:41.468Z,1019.20
2018-12-05T09:23:40.001Z,1019.18
2018-12-05T09:24:39.974Z,1019.16
2018-12-05T09:25:39.978Z,1019.16
2018-12-05T09:26:39.979Z,1019.19
2018-12-05T09:27:39.988Z,1019.21
2018-12-05T09:28:40.022Z,1019.22
2018-12-05T09:29:40.007Z,1019.23
2018-12-05T09:30:40.022Z,1019.27
2018-12-05T09:31:39.998Z,1019.23
2018-12-05T09:32:40.005Z,1019.22
2018-12-05T09:33:40.057Z,1019.16
2018-12-05T09:34:40.011Z,1019.17
2018-12-05T09:35:40.020Z,1019.13
2018-12-05T09:36:40.016Z,1019.15
2018-12-05T09:37:40.020Z,1019.15
2018-12-05T09:38:40.029Z,1019.08
2018-12-05T09:39:40.029Z,1019.01
2018-12-05T09:40:40.026Z,1019.04
2018-12-05T09:41:40.072Z,1019.00
2018-12-05T09:42:40.052Z,1019.01
2018-12-05T09:43:40.039Z,1018.95
2018-12-05T09:44:40.039Z,1018.93
2018-12-05T09:45:40.047Z,1018.95
2018-12-05T09:46:40.065Z,1018.93
2018-12-05T09:47:40.058Z,1018.94
2018-12-05T09:48:40.058Z,1018.95
2018-12-05T09:50:40.076Z,1018.88
2018-12-05T09:51:40.078Z,1018.89
2018-12-05T09:52:40.073Z,1018.87
2018-12-05T09:53:40.077Z,1018.87
2018-12-05T09:54:40.082Z,1018.95
2018-12-05T09:55:40.096Z,1018.96
2018-12-05T09:56:40.104Z,1018.99
2018-12-05T09:57:40.118Z,1018.92
2018-12-05T09:58:40.100Z,1018.97
2018-12-05T09:59:40.113Z,1018.90
2018-12-05T10:00:40.107Z,1018.88
2018-12-05T10:01:40.116Z,1018.81
2018-12-05T10:02:40.115Z,1018.83
2018-12-05T10:03:40.121Z,1018.82
2018-12-05T10:04:40.128Z,1018.80
2018-12-05T10:05:40.130Z,1018.78
2018-12-05T10:06:40.148Z,1018.74
2018-12-05T10:07:40.149Z,1018.73
2018-12-05T10:08:40.135Z,1018.67
2018-12-05T10:09:40.157Z,1018.64
2018-12-05T10:10:40.143Z,1018.69
2018-12-05T10:11:40.151Z,1018.55
2018-12-05T10:12:40.167Z,1018.59
2018-12-05T10:13:40.166Z,1018.63
2018-12-05T10:14:40.168Z,1018.64
2018-12-05T10:15:40.174Z,1018.63
2018-12-05T10:16:40.174Z,1018.61
2018-12-05T10:17:40.175Z,1018.56
2018-12-05T10:18:40.186Z,1018.50
2018-12-05T10:19:40.189Z,1018.48
2018-12-05T10:21:40.215Z,1018.47
2018-12-05T10:22:40.200Z,1018.44
2018-12-05T10:23:40.212Z,1018.42
2018-12-05T10:24:40.214Z,1018.46
2018-12-05T10:25:40.214Z,1018.45
2018-12-05T10:26:40.223Z,1018.42
2018-12-05T10:27:40.233Z,1018.46
2018-12-05T10:28:40.227Z,1018.43
2018-12-05T10:29:40.228Z,1018.42
2018-12-05T10:30:40.239Z,1018.41
2018-12-05T10:31:43.959Z,1018.38
2018-12-05T10:32:40.245Z,1018.39
2018-12-05T10:33:40.248Z,1018.42
2018-12-05T10:34:40.274Z,1018.36
2018-12-05T10:35:40.258Z,1018.36
2018-12-05T10:36:40.280Z,1018.34
2018-12-05T10:37:40.266Z,1018.34
2018-12-05T10:38:40.276Z,1018.32
2018-12-05T10:39:40.322Z,1018.31
2018-12-05T10:40:40.293Z,1018.29
2018-12-05T10:41:40.290Z,1018.26
2018-12-05T10:42:40.293Z,1018.24
2018-12-05T10:43:40.306Z,1018.23
2018-12-05T10:44:40.296Z,1018.22
2018-12-05T10:45:40.306Z,1018.25
2018-12-05T10:46:40.311Z,1018.20
2018-12-05T10:47:40.311Z,1018.22
2018-12-05T10:48:40.713Z,1018.16
2018-12-05T10:49:40.312Z,1018.16
2018-12-05T10:50:40.327Z,1018.16
2018-12-05T10:51:40.337Z,1018.10
2018-12-05T10:52:40.336Z,1018.10
2018-12-05T10:53:40.345Z,1018.10
2018-12-05T10:54:40.350Z,1018.06
2018-12-05T10:55:40.353Z,1018.05
2018-12-05T10:57:40.363Z,1017.96
2018-12-05T10:58:40.364Z,1018.00
2018-12-05T10:59:40.368Z,1017.95
2018-12-05T11:00:40.375Z,1017.93
2018-12-05T11:01:40.380Z,1017.93
2018-12-05T11:02:40.383Z,1017.91
2018-12-05T11:03:40.379Z,1017.89
2018-12-05T11:04:40.388Z,1017.89
2018-12-05T11:05:40.400Z,1017.87
2018-12-05T11:06:40.395Z,1017.86
2018-12-05T11:07:40.408Z,1017.87
2018-12-05T11:08:40.408Z,1017.89
2018-12-05T11:09:40.404Z,1017.84
2018-12-05T11:10:40.415Z,1017.84
2018-12-05T11:11:40.418Z,1017.76
2018-12-05T11:12:40.417Z,1017.82
2018-12-05T11:13:40.430Z,1017.77
2018-12-05T11:14:40.502Z,1017.72
2018-12-05T11:15:40.428Z,1017.76
2018-12-05T11:16:40.438Z,1017.71
2018-12-05T11:17:40.440Z,1017.66
2018-12-05T11:18:40.488Z,1017.60
2018-12-05T11:19:40.478Z,1017.62
2018-12-05T11:20:40.529Z,1017.62
2018-12-05T11:21:40.465Z,1017.57
2018-12-05T11:22:40.466Z,1017.59
2018-12-05T11:23:40.467Z,1017.55
2018-12-05T11:24:40.476Z,1017.55
2018-12-05T11:25:40.481Z,1017.56
2018-12-05T11:26:40.491Z,1017.54
2018-12-05T11:27:40.484Z,1017.52
2018-12-05T11:28:40.491Z,1017.53
2018-12-05T11:29:40.492Z,1017.51
2018-12-05T11:30:40.501Z,1017.52
2018-12-05T11:31:40.507Z,1017.50
2018-12-05T11:32:40.510Z,1017.48
2018-12-05T11:33:40.519Z,1017.50
2018-12-05T11:34:40.523Z,1017.48
2018-12-05T11:35:40.530Z,1017.45
2018-12-05T11:36:40.542Z,1017.48
2018-12-05T11:37:40.534Z,1017.49
2018-12-05T11:38:40.561Z,1017.47
2018-12-05T11:39:40.542Z,1017.44
2018-12-05T11:40:40.549Z,1017.44
2018-12-05T11:41:40.552Z,1017.38
2018-12-05T11:42:40.564Z,1017.33
2018-12-05T11:43:40.560Z,1017.33
2018-12-05T11:44:40.578Z,1017.33
2018-12-05T11:45:40.571Z,1017.25
2018-12-05T11:46:40.581Z,1017.25
2018-12-05T11:47:40.589Z,1017.26
2018-12-05T11:48:40.580Z,1017.19
2018-12-05T11:49:40.620Z,1017.19
2018-12-05T11:50:40.607Z,1017.13
2018-12-05T11:51:40.614Z,1017.13
2018-12-05T11:52:40.628Z,1017.13
2018-12-05T11:53:40.606Z,1017.13
2018-12-05T11:54:40.624Z,1017.08
2018-12-05T11:55:40.619Z,1017.04
2018-12-05T11:56:40.625Z,1017.03
2018-12-05T11:57:40.627Z,1017.04
2018-12-05T11:58:40.630Z,1017.00
2018-12-05T11:59:40.636Z,1017.00
2018-12-05T12:00:40.652Z,1016.96
2018-12-05T12:01:40.646Z,1016.95
2018-12-05T12:02:40.650Z,1016.95
2018-12-05T12:03:40.669Z,1016.90
2018-12-05T12:04:40.659Z,1016.91
2018-12-05T12:05:40.668Z,1016.89
2018-12-05T12:06:40.679Z,1016.90
2018-12-05T12:07:40.671Z,1016.88
2018-12-05T12:08:40.697Z,1016.78
2018-12-05T12:09:40.687Z,1016.82
2018-12-05T12:10:40.693Z,1016.83
2018-12-05T12:11:40.699Z,1016.79
2018-12-05T12:12:40.710Z,1016.79
2018-12-05T12:13:40.703Z,1016.84
2018-12-05T12:14:40.714Z,1016.77
2018-12-05T12:15:40.731Z,1016.75
2018-12-05T12:16:40.729Z,1016.71
2018-12-05T12:17:41.946Z,1016.71
2018-12-05T12:18:40.738Z,1016.73
2018-12-05T12:19:40.733Z,1016.68
2018-12-05T12:20:40.744Z,1016.65
2018-12-05T12:21:40.743Z,1016.62
2018-12-05T12:22:40.751Z,1016.61
2018-12-05T12:23:40.756Z,1016.57
2018-12-05T12:24:40.761Z,1016.58
2018-12-05T12:25:40.761Z,1016.55
2018-12-05T12:26:40.769Z,1016.53
2018-12-05T12:27:40.773Z,1016.56
2018-12-05T12:28:40.775Z,1016.55
2018-12-05T12:30:40.789Z,1016.50
2018-12-05T12:31:40.799Z,1016.50
2018-12-05T12:32:40.793Z,1016.47